sensor_id;sensor_type;location;lat;lon;timestamp;temperature;humidity
22430;DHT22;11382;48.086;11.632;2023-04-28T00:00:04;7.40;99.90
22430;DHT22;11382;48.086;11.632;2023-04-28T00:02:33;7.40;99.90
22430;DHT22;11382;48.086;11.632;2023-04-28T00:05:01;7.40;99.90
22430;DHT22;11382;48.086;11.632;2023-04-28T00:07:30;7.50;99.90
22430;DHT22;11382;48.086;11.632;2023-04-28T00:09:58;7.50;99.90
22430;DHT22;11382;48.086;11.632;2023-04-28T00:12:26;7.50;99.90
22430;DHT22;11382;48.086;11.632;2023-04-28T00:14:55;7.50;99.90
22430;DHT22;11382;48.086;11.632;2023-04-28T00:17:23;7.60;99.90
22430;DHT22;11382;48.086;11.632;2023-04-28T00:19:51;7.70;99.90
22430;DHT22;11382;48.086;11.632;2023-04-28T00:22:19;7.70;99.90
22430;DHT22;11382;48.086;11.632;2023-04-28T00:24:47;7.80;99.90
22430;DHT22;11382;48.086;11.632;2023-04-28T00:27:15;7.80;99.90
22430;DHT22;11382;48.086;11.632;2023-04-28T00:29:43;7.80;99.90
22430;DHT22;11382;48.086;11.632;2023-04-28T00:32:13;7.90;99.90
22430;DHT22;11382;48.086;11.632;2023-04-28T00:34:40;7.90;99.90
22430;DHT22;11382;48.086;11.632;2023-04-28T00:37:09;7.90;99.90
22430;DHT22;11382;48.086;11.632;2023-04-28T00:39:37;7.80;99.90
22430;DHT22;11382;48.086;11.632;2023-04-28T00:42:05;7.70;99.90
22430;DHT22;11382;48.086;11.632;2023-04-28T00:44:33;7.80;99.90
22430;DHT22;11382;48.086;11.632;2023-04-28T00:47:01;7.90;99.90
22430;DHT22;11382;48.086;11.632;2023-04-28T00:49:30;7.90;99.90
22430;DHT22;11382;48.086;11.632;2023-04-28T00:52:03;7.90;99.90
22430;DHT22;11382;48.086;11.632;2023-04-28T00:54:32;7.90;99.90
22430;DHT22;11382;48.086;11.632;2023-04-28T00:57:00;7.90;99.90
22430;DHT22;11382;48.086;11.632;2023-04-28T00:59:30;7.80;99.90
22430;DHT22;11382;48.086;11.632;2023-04-28T01:01:59;7.90;99.90
22430;DHT22;11382;48.086;11.632;2023-04-28T01:04:28;7.80;99.90
22430;DHT22;11382;48.086;11.632;2023-04-28T01:06:59;7.90;99.90
22430;DHT22;11382;48.086;11.632;2023-04-28T01:09:28;8.00;99.90
22430;DHT22;11382;48.086;11.632;2023-04-28T01:11:57;8.00;99.90
22430;DHT22;11382;48.086;11.632;2023-04-28T01:14:41;8.10;99.90
22430;DHT22;11382;48.086;11.632;2023-04-28T01:17:10;8.10;99.90
22430;DHT22;11382;48.086;11.632;2023-04-28T01:19:41;8.10;99.90
22430;DHT22;11382;48.086;11.632;2023-04-28T01:22:10;8.10;99.90
22430;DHT22;11382;48.086;11.632;2023-04-28T01:24:43;8.10;99.90
22430;DHT22;11382;48.086;11.632;2023-04-28T01:27:13;8.20;99.90
22430;DHT22;11382;48.086;11.632;2023-04-28T01:29:41;8.20;99.90
22430;DHT22;11382;48.086;11.632;2023-04-28T01:32:09;8.10;99.90
22430;DHT22;11382;48.086;11.632;2023-04-28T01:34:38;8.00;99.90
22430;DHT22;11382;48.086;11.632;2023-04-28T01:37:06;8.10;99.90
22430;DHT22;11382;48.086;11.632;2023-04-28T01:39:36;8.00;99.90
22430;DHT22;11382;48.086;11.632;2023-04-28T01:42:05;8.00;99.90
22430;DHT22;11382;48.086;11.632;2023-04-28T01:44:33;8.10;99.90
22430;DHT22;11382;48.086;11.632;2023-04-28T01:47:01;8.10;99.90
22430;DHT22;11382;48.086;11.632;2023-04-28T01:49:29;8.20;99.90
22430;DHT22;11382;48.086;11.632;2023-04-28T01:51:58;8.20;99.90
22430;DHT22;11382;48.086;11.632;2023-04-28T01:54:26;8.30;99.90
22430;DHT22;11382;48.086;11.632;2023-04-28T01:56:54;8.30;99.90
22430;DHT22;11382;48.086;11.632;2023-04-28T01:59:25;8.30;99.90
22430;DHT22;11382;48.086;11.632;2023-04-28T02:01:53;8.30;99.90
22430;DHT22;11382;48.086;11.632;2023-04-28T02:04:22;8.40;99.90
22430;DHT22;11382;48.086;11.632;2023-04-28T02:06:50;8.40;99.90
22430;DHT22;11382;48.086;11.632;2023-04-28T02:09:18;8.50;99.90
22430;DHT22;11382;48.086;11.632;2023-04-28T02:11:46;8.50;99.90
22430;DHT22;11382;48.086;11.632;2023-04-28T02:14:15;8.40;99.90
22430;DHT22;11382;48.086;11.632;2023-04-28T02:16:45;8.30;99.90
22430;DHT22;11382;48.086;11.632;2023-04-28T02:19:14;8.30;99.90
22430;DHT22;11382;48.086;11.632;2023-04-28T02:21:42;8.30;99.90
22430;DHT22;11382;48.086;11.632;2023-04-28T02:24:12;8.30;99.90
22430;DHT22;11382;48.086;11.632;2023-04-28T02:26:40;8.40;99.90
22430;DHT22;11382;48.086;11.632;2023-04-28T02:29:08;8.50;99.90
22430;DHT22;11382;48.086;11.632;2023-04-28T02:31:36;8.60;99.90
22430;DHT22;11382;48.086;11.632;2023-04-28T02:34:06;8.60;99.90
22430;DHT22;11382;48.086;11.632;2023-04-28T02:36:34;8.60;99.90
22430;DHT22;11382;48.086;11.632;2023-04-28T02:39:02;8.60;99.90
22430;DHT22;11382;48.086;11.632;2023-04-28T02:41:30;8.60;99.90
22430;DHT22;11382;48.086;11.632;2023-04-28T02:44:00;8.50;99.90
22430;DHT22;11382;48.086;11.632;2023-04-28T02:46:28;8.40;99.90
22430;DHT22;11382;48.086;11.632;2023-04-28T02:48:56;8.50;99.90
22430;DHT22;11382;48.086;11.632;2023-04-28T02:51:25;8.40;99.90
22430;DHT22;11382;48.086;11.632;2023-04-28T02:53:54;8.50;99.90
22430;DHT22;11382;48.086;11.632;2023-04-28T02:56:22;8.50;99.90
22430;DHT22;11382;48.086;11.632;2023-04-28T02:58:51;8.40;99.90
22430;DHT22;11382;48.086;11.632;2023-04-28T03:01:19;8.40;99.90
22430;DHT22;11382;48.086;11.632;2023-04-28T03:03:47;8.30;99.90
22430;DHT22;11382;48.086;11.632;2023-04-28T03:06:15;8.50;99.90
22430;DHT22;11382;48.086;11.632;2023-04-28T03:08:44;8.50;99.90
22430;DHT22;11382;48.086;11.632;2023-04-28T03:11:12;8.50;99.90
22430;DHT22;11382;48.086;11.632;2023-04-28T03:13:40;8.50;99.90
22430;DHT22;11382;48.086;11.632;2023-04-28T03:16:09;8.60;99.90
22430;DHT22;11382;48.086;11.632;2023-04-28T03:18:37;8.60;99.90
22430;DHT22;11382;48.086;11.632;2023-04-28T03:21:05;8.50;99.90
22430;DHT22;11382;48.086;11.632;2023-04-28T03:23:33;8.50;99.90
22430;DHT22;11382;48.086;11.632;2023-04-28T03:26:03;8.40;99.90
22430;DHT22;11382;48.086;11.632;2023-04-28T03:28:31;8.30;99.90
22430;DHT22;11382;48.086;11.632;2023-04-28T03:30:59;8.30;99.90
22430;DHT22;11382;48.086;11.632;2023-04-28T03:33:28;8.30;99.90
22430;DHT22;11382;48.086;11.632;2023-04-28T03:35:58;8.30;99.90
22430;DHT22;11382;48.086;11.632;2023-04-28T03:38:26;8.40;99.90
22430;DHT22;11382;48.086;11.632;2023-04-28T03:40:54;8.50;99.90
22430;DHT22;11382;48.086;11.632;2023-04-28T03:43:46;8.50;99.90
22430;DHT22;11382;48.086;11.632;2023-04-28T03:46:25;8.50;99.90
22430;DHT22;11382;48.086;11.632;2023-04-28T03:48:53;8.60;99.90
22430;DHT22;11382;48.086;11.632;2023-04-28T03:51:21;8.70;99.90
22430;DHT22;11382;48.086;11.632;2023-04-28T03:53:49;8.70;99.90
22430;DHT22;11382;48.086;11.632;2023-04-28T03:56:18;8.70;99.90
22430;DHT22;11382;48.086;11.632;2023-04-28T03:58:48;8.80;99.90
22430;DHT22;11382;48.086;11.632;2023-04-28T04:01:16;8.90;99.90
22430;DHT22;11382;48.086;11.632;2023-04-28T04:03:44;8.90;99.90
22430;DHT22;11382;48.086;11.632;2023-04-28T04:06:12;9.10;99.90
22430;DHT22;11382;48.086;11.632;2023-04-28T04:08:40;9.10;99.90
22430;DHT22;11382;48.086;11.632;2023-04-28T04:11:08;9.10;99.90
22430;DHT22;11382;48.086;11.632;2023-04-28T04:13:36;9.10;99.90
22430;DHT22;11382;48.086;11.632;2023-04-28T04:16:10;9.00;99.90
22430;DHT22;11382;48.086;11.632;2023-04-28T04:18:38;9.00;99.90
22430;DHT22;11382;48.086;11.632;2023-04-28T04:21:16;9.00;99.90
22430;DHT22;11382;48.086;11.632;2023-04-28T04:23:45;9.00;99.90
22430;DHT22;11382;48.086;11.632;2023-04-28T04:26:13;9.00;99.90
22430;DHT22;11382;48.086;11.632;2023-04-28T04:28:41;9.00;99.90
22430;DHT22;11382;48.086;11.632;2023-04-28T04:31:11;9.00;99.90
22430;DHT22;11382;48.086;11.632;2023-04-28T04:33:39;9.00;99.90
22430;DHT22;11382;48.086;11.632;2023-04-28T04:36:07;9.00;99.90
22430;DHT22;11382;48.086;11.632;2023-04-28T04:38:35;9.00;99.90
22430;DHT22;11382;48.086;11.632;2023-04-28T04:41:16;8.90;99.90
22430;DHT22;11382;48.086;11.632;2023-04-28T04:43:47;8.90;99.90
22430;DHT22;11382;48.086;11.632;2023-04-28T04:46:16;8.90;99.90
22430;DHT22;11382;48.086;11.632;2023-04-28T04:48:47;8.90;99.90
22430;DHT22;11382;48.086;11.632;2023-04-28T04:51:15;8.90;99.90
22430;DHT22;11382;48.086;11.632;2023-04-28T04:53:43;9.00;99.90
22430;DHT22;11382;48.086;11.632;2023-04-28T04:56:11;9.10;99.90
22430;DHT22;11382;48.086;11.632;2023-04-28T04:58:41;9.10;99.90
22430;DHT22;11382;48.086;11.632;2023-04-28T05:01:31;9.20;99.90
22430;DHT22;11382;48.086;11.632;2023-04-28T05:04:00;9.40;99.90
22430;DHT22;11382;48.086;11.632;2023-04-28T05:06:29;9.50;99.90
22430;DHT22;11382;48.086;11.632;2023-04-28T05:08:59;9.60;99.90
22430;DHT22;11382;48.086;11.632;2023-04-28T05:11:28;9.60;99.90
22430;DHT22;11382;48.086;11.632;2023-04-28T05:13:56;9.80;99.90
22430;DHT22;11382;48.086;11.632;2023-04-28T05:16:24;9.80;99.90
22430;DHT22;11382;48.086;11.632;2023-04-28T05:19:09;9.70;99.90
22430;DHT22;11382;48.086;11.632;2023-04-28T05:21:37;9.70;99.90
22430;DHT22;11382;48.086;11.632;2023-04-28T05:24:05;9.70;99.90
22430;DHT22;11382;48.086;11.632;2023-04-28T05:26:34;9.60;99.90
22430;DHT22;11382;48.086;11.632;2023-04-28T05:29:07;9.70;99.90
22430;DHT22;11382;48.086;11.632;2023-04-28T05:31:35;9.80;99.90
22430;DHT22;11382;48.086;11.632;2023-04-28T05:34:03;9.90;99.90
22430;DHT22;11382;48.086;11.632;2023-04-28T05:36:32;10.00;99.90
22430;DHT22;11382;48.086;11.632;2023-04-28T05:39:01;10.00;99.90
22430;DHT22;11382;48.086;11.632;2023-04-28T05:41:29;9.90;99.90
22430;DHT22;11382;48.086;11.632;2023-04-28T05:43:57;9.90;99.90
22430;DHT22;11382;48.086;11.632;2023-04-28T05:46:25;9.80;99.90
22430;DHT22;11382;48.086;11.632;2023-04-28T05:48:58;9.90;99.90
22430;DHT22;11382;48.086;11.632;2023-04-28T05:51:33;9.90;99.90
22430;DHT22;11382;48.086;11.632;2023-04-28T05:54:01;10.00;99.90
22430;DHT22;11382;48.086;11.632;2023-04-28T05:56:33;9.80;99.90
22430;DHT22;11382;48.086;11.632;2023-04-28T05:59:01;9.80;99.90
22430;DHT22;11382;48.086;11.632;2023-04-28T06:01:31;9.60;99.90
22430;DHT22;11382;48.086;11.632;2023-04-28T06:03:59;9.60;99.90
22430;DHT22;11382;48.086;11.632;2023-04-28T06:06:27;9.70;99.90
22430;DHT22;11382;48.086;11.632;2023-04-28T06:08:57;9.60;99.90
22430;DHT22;11382;48.086;11.632;2023-04-28T06:11:25;9.70;99.90
22430;DHT22;11382;48.086;11.632;2023-04-28T06:13:53;9.80;99.90
22430;DHT22;11382;48.086;11.632;2023-04-28T06:16:21;9.90;99.90
22430;DHT22;11382;48.086;11.632;2023-04-28T06:18:49;9.80;99.90
22430;DHT22;11382;48.086;11.632;2023-04-28T06:21:18;9.90;99.90
22430;DHT22;11382;48.086;11.632;2023-04-28T06:23:47;9.80;99.90
22430;DHT22;11382;48.086;11.632;2023-04-28T06:26:17;9.80;99.90
22430;DHT22;11382;48.086;11.632;2023-04-28T06:28:45;9.90;99.90
22430;DHT22;11382;48.086;11.632;2023-04-28T06:31:13;10.00;99.90
22430;DHT22;11382;48.086;11.632;2023-04-28T06:33:41;10.10;99.90
22430;DHT22;11382;48.086;11.632;2023-04-28T06:36:09;10.20;99.90
22430;DHT22;11382;48.086;11.632;2023-04-28T06:38:39;10.30;99.90
22430;DHT22;11382;48.086;11.632;2023-04-28T06:41:09;10.30;99.90
22430;DHT22;11382;48.086;11.632;2023-04-28T06:43:39;10.40;99.90
22430;DHT22;11382;48.086;11.632;2023-04-28T06:46:12;10.70;99.90
22430;DHT22;11382;48.086;11.632;2023-04-28T06:48:41;10.80;99.90
22430;DHT22;11382;48.086;11.632;2023-04-28T06:51:09;10.70;99.90
22430;DHT22;11382;48.086;11.632;2023-04-28T06:53:38;10.80;99.90
22430;DHT22;11382;48.086;11.632;2023-04-28T06:56:07;10.90;99.90
22430;DHT22;11382;48.086;11.632;2023-04-28T06:58:38;11.10;99.90
22430;DHT22;11382;48.086;11.632;2023-04-28T07:01:07;11.50;99.90
22430;DHT22;11382;48.086;11.632;2023-04-28T07:03:35;11.90;99.90
22430;DHT22;11382;48.086;11.632;2023-04-28T07:06:05;12.20;99.90
22430;DHT22;11382;48.086;11.632;2023-04-28T07:08:33;12.60;99.90
22430;DHT22;11382;48.086;11.632;2023-04-28T07:11:02;12.80;99.90
22430;DHT22;11382;48.086;11.632;2023-04-28T07:13:30;12.90;99.90
22430;DHT22;11382;48.086;11.632;2023-04-28T07:16:00;12.80;99.90
22430;DHT22;11382;48.086;11.632;2023-04-28T07:18:28;12.80;99.90
22430;DHT22;11382;48.086;11.632;2023-04-28T07:20:56;13.00;99.90
22430;DHT22;11382;48.086;11.632;2023-04-28T07:23:24;12.80;99.90
22430;DHT22;11382;48.086;11.632;2023-04-28T07:25:52;12.50;99.90
22430;DHT22;11382;48.086;11.632;2023-04-28T07:28:20;12.40;99.90
22430;DHT22;11382;48.086;11.632;2023-04-28T07:30:48;12.40;99.90
22430;DHT22;11382;48.086;11.632;2023-04-28T07:33:18;12.40;99.90
22430;DHT22;11382;48.086;11.632;2023-04-28T07:35:46;12.30;99.90
22430;DHT22;11382;48.086;11.632;2023-04-28T07:38:15;12.30;99.90
22430;DHT22;11382;48.086;11.632;2023-04-28T07:40:44;12.30;99.90
22430;DHT22;11382;48.086;11.632;2023-04-28T07:43:12;12.20;99.90
22430;DHT22;11382;48.086;11.632;2023-04-28T07:45:40;12.20;99.90
22430;DHT22;11382;48.086;11.632;2023-04-28T07:48:11;12.30;99.90
22430;DHT22;11382;48.086;11.632;2023-04-28T07:50:41;12.20;99.90
22430;DHT22;11382;48.086;11.632;2023-04-28T07:53:09;12.20;99.90
22430;DHT22;11382;48.086;11.632;2023-04-28T07:55:38;12.20;99.90
22430;DHT22;11382;48.086;11.632;2023-04-28T07:58:07;12.30;99.90
22430;DHT22;11382;48.086;11.632;2023-04-28T08:00:35;12.30;99.90
22430;DHT22;11382;48.086;11.632;2023-04-28T08:03:06;12.40;99.90
22430;DHT22;11382;48.086;11.632;2023-04-28T08:05:35;12.40;99.90
22430;DHT22;11382;48.086;11.632;2023-04-28T08:08:04;12.40;99.90
22430;DHT22;11382;48.086;11.632;2023-04-28T08:10:32;12.60;99.90
22430;DHT22;11382;48.086;11.632;2023-04-28T08:13:00;12.60;99.90
22430;DHT22;11382;48.086;11.632;2023-04-28T08:15:29;12.60;99.90
22430;DHT22;11382;48.086;11.632;2023-04-28T08:17:57;12.70;99.90
22430;DHT22;11382;48.086;11.632;2023-04-28T08:20:25;12.80;99.90
22430;DHT22;11382;48.086;11.632;2023-04-28T08:22:55;12.80;99.90
22430;DHT22;11382;48.086;11.632;2023-04-28T08:25:24;12.90;99.90
22430;DHT22;11382;48.086;11.632;2023-04-28T08:27:53;12.90;99.90
22430;DHT22;11382;48.086;11.632;2023-04-28T08:30:23;13.00;99.90
22430;DHT22;11382;48.086;11.632;2023-04-28T08:32:51;13.00;99.90
22430;DHT22;11382;48.086;11.632;2023-04-28T08:35:19;12.90;99.90
22430;DHT22;11382;48.086;11.632;2023-04-28T08:37:48;12.70;99.90
22430;DHT22;11382;48.086;11.632;2023-04-28T08:40:16;12.70;99.90
22430;DHT22;11382;48.086;11.632;2023-04-28T08:42:46;12.60;99.90
22430;DHT22;11382;48.086;11.632;2023-04-28T08:45:14;12.60;99.90
22430;DHT22;11382;48.086;11.632;2023-04-28T08:47:43;12.50;99.90
22430;DHT22;11382;48.086;11.632;2023-04-28T08:50:13;12.50;99.90
22430;DHT22;11382;48.086;11.632;2023-04-28T08:52:41;12.50;99.90
22430;DHT22;11382;48.086;11.632;2023-04-28T08:55:11;12.70;99.90
22430;DHT22;11382;48.086;11.632;2023-04-28T08:57:42;12.60;99.90
22430;DHT22;11382;48.086;11.632;2023-04-28T09:00:13;12.60;99.90
22430;DHT22;11382;48.086;11.632;2023-04-28T09:02:41;12.60;99.90
22430;DHT22;11382;48.086;11.632;2023-04-28T09:05:10;12.60;99.90
22430;DHT22;11382;48.086;11.632;2023-04-28T09:07:39;12.50;99.90
22430;DHT22;11382;48.086;11.632;2023-04-28T09:10:18;12.50;99.90
22430;DHT22;11382;48.086;11.632;2023-04-28T09:12:49;12.60;99.90
22430;DHT22;11382;48.086;11.632;2023-04-28T09:15:33;12.60;99.90
22430;DHT22;11382;48.086;11.632;2023-04-28T09:18:02;12.60;99.90
22430;DHT22;11382;48.086;11.632;2023-04-28T09:20:32;12.60;99.90
22430;DHT22;11382;48.086;11.632;2023-04-28T09:23:14;12.70;99.90
22430;DHT22;11382;48.086;11.632;2023-04-28T09:25:57;12.60;99.90
22430;DHT22;11382;48.086;11.632;2023-04-28T09:28:25;12.60;99.90
22430;DHT22;11382;48.086;11.632;2023-04-28T09:30:55;12.70;99.90
22430;DHT22;11382;48.086;11.632;2023-04-28T09:33:23;12.60;99.90
22430;DHT22;11382;48.086;11.632;2023-04-28T09:35:51;12.60;99.90
22430;DHT22;11382;48.086;11.632;2023-04-28T09:38:21;12.40;99.90
22430;DHT22;11382;48.086;11.632;2023-04-28T09:40:54;12.20;99.90
22430;DHT22;11382;48.086;11.632;2023-04-28T09:43:27;12.20;99.90
22430;DHT22;11382;48.086;11.632;2023-04-28T09:45:58;12.20;99.90
22430;DHT22;11382;48.086;11.632;2023-04-28T09:48:29;12.20;99.90
22430;DHT22;11382;48.086;11.632;2023-04-28T09:50:58;12.20;99.90
22430;DHT22;11382;48.086;11.632;2023-04-28T09:53:27;12.00;99.90
22430;DHT22;11382;48.086;11.632;2023-04-28T09:55:56;11.80;99.90
22430;DHT22;11382;48.086;11.632;2023-04-28T09:58:27;11.90;99.90
22430;DHT22;11382;48.086;11.632;2023-04-28T10:00:57;11.90;99.90
22430;DHT22;11382;48.086;11.632;2023-04-28T10:03:27;12.00;99.90
22430;DHT22;11382;48.086;11.632;2023-04-28T10:05:57;12.00;99.90
22430;DHT22;11382;48.086;11.632;2023-04-28T10:08:26;12.00;99.90
22430;DHT22;11382;48.086;11.632;2023-04-28T10:10:55;12.10;99.90
22430;DHT22;11382;48.086;11.632;2023-04-28T10:13:24;12.20;99.90
22430;DHT22;11382;48.086;11.632;2023-04-28T10:15:52;12.30;99.90
22430;DHT22;11382;48.086;11.632;2023-04-28T10:18:23;12.40;99.90
22430;DHT22;11382;48.086;11.632;2023-04-28T10:20:55;12.40;99.90
22430;DHT22;11382;48.086;11.632;2023-04-28T10:23:45;12.30;99.90
22430;DHT22;11382;48.086;11.632;2023-04-28T10:26:16;12.20;99.90
22430;DHT22;11382;48.086;11.632;2023-04-28T10:28:47;12.20;99.90
22430;DHT22;11382;48.086;11.632;2023-04-28T10:31:16;12.20;99.90
22430;DHT22;11382;48.086;11.632;2023-04-28T10:33:48;12.30;99.90
22430;DHT22;11382;48.086;11.632;2023-04-28T10:39:21;12.30;99.90
22430;DHT22;11382;48.086;11.632;2023-04-28T10:41:49;12.30;99.90
22430;DHT22;11382;48.086;11.632;2023-04-28T10:44:41;12.40;99.90
22430;DHT22;11382;48.086;11.632;2023-04-28T10:47:10;12.30;99.90
22430;DHT22;11382;48.086;11.632;2023-04-28T10:50:10;12.10;99.90
22430;DHT22;11382;48.086;11.632;2023-04-28T10:52:47;12.00;99.90
22430;DHT22;11382;48.086;11.632;2023-04-28T10:55:29;12.00;99.90
22430;DHT22;11382;48.086;11.632;2023-04-28T10:58:30;12.10;99.90
22430;DHT22;11382;48.086;11.632;2023-04-28T11:01:23;12.20;99.90
22430;DHT22;11382;48.086;11.632;2023-04-28T11:03:52;12.20;99.90
22430;DHT22;11382;48.086;11.632;2023-04-28T11:06:29;12.30;99.90
22430;DHT22;11382;48.086;11.632;2023-04-28T11:08:59;12.20;99.90
22430;DHT22;11382;48.086;11.632;2023-04-28T11:11:28;12.20;99.90
22430;DHT22;11382;48.086;11.632;2023-04-28T11:14:29;12.60;99.90
22430;DHT22;11382;48.086;11.632;2023-04-28T11:16:59;12.60;99.90
22430;DHT22;11382;48.086;11.632;2023-04-28T11:19:31;12.30;99.90
22430;DHT22;11382;48.086;11.632;2023-04-28T11:22:03;12.50;99.90
22430;DHT22;11382;48.086;11.632;2023-04-28T11:24:35;12.40;99.90
22430;DHT22;11382;48.086;11.632;2023-04-28T11:27:05;12.30;99.90
22430;DHT22;11382;48.086;11.632;2023-04-28T11:29:34;12.20;99.90
22430;DHT22;11382;48.086;11.632;2023-04-28T11:32:03;12.20;99.90
22430;DHT22;11382;48.086;11.632;2023-04-28T11:34:35;12.10;99.90
22430;DHT22;11382;48.086;11.632;2023-04-28T11:37:05;12.20;99.90
22430;DHT22;11382;48.086;11.632;2023-04-28T11:39:34;12.10;99.90
22430;DHT22;11382;48.086;11.632;2023-04-28T11:42:09;12.20;99.90
22430;DHT22;11382;48.086;11.632;2023-04-28T11:44:37;12.60;99.90
22430;DHT22;11382;48.086;11.632;2023-04-28T11:47:06;13.00;99.90
22430;DHT22;11382;48.086;11.632;2023-04-28T11:49:42;13.40;99.90
22430;DHT22;11382;48.086;11.632;2023-04-28T11:52:11;13.70;99.90
22430;DHT22;11382;48.086;11.632;2023-04-28T11:54:39;14.20;99.90
22430;DHT22;11382;48.086;11.632;2023-04-28T11:57:16;14.30;99.90
22430;DHT22;11382;48.086;11.632;2023-04-28T11:59:44;14.40;99.90
22430;DHT22;11382;48.086;11.632;2023-04-28T12:02:14;14.30;99.90
22430;DHT22;11382;48.086;11.632;2023-04-28T12:04:43;14.40;99.90
22430;DHT22;11382;48.086;11.632;2023-04-28T12:07:15;14.60;99.90
22430;DHT22;11382;48.086;11.632;2023-04-28T12:09:45;14.20;99.90
22430;DHT22;11382;48.086;11.632;2023-04-28T12:12:14;14.10;99.90
22430;DHT22;11382;48.086;11.632;2023-04-28T12:14:54;14.00;99.90
22430;DHT22;11382;48.086;11.632;2023-04-28T12:17:24;13.90;99.90
22430;DHT22;11382;48.086;11.632;2023-04-28T12:19:53;14.00;99.90
22430;DHT22;11382;48.086;11.632;2023-04-28T12:22:23;14.00;99.90
22430;DHT22;11382;48.086;11.632;2023-04-28T12:25:05;13.90;99.90
22430;DHT22;11382;48.086;11.632;2023-04-28T12:27:34;14.00;99.90
22430;DHT22;11382;48.086;11.632;2023-04-28T12:30:23;13.80;99.90
22430;DHT22;11382;48.086;11.632;2023-04-28T12:32:51;13.60;99.90
22430;DHT22;11382;48.086;11.632;2023-04-28T12:35:22;13.50;99.90
22430;DHT22;11382;48.086;11.632;2023-04-28T12:37:53;13.40;99.90
22430;DHT22;11382;48.086;11.632;2023-04-28T12:40:22;13.50;99.90
22430;DHT22;11382;48.086;11.632;2023-04-28T12:42:50;13.60;99.90
22430;DHT22;11382;48.086;11.632;2023-04-28T12:45:18;13.50;99.90
22430;DHT22;11382;48.086;11.632;2023-04-28T12:47:46;13.50;99.90
22430;DHT22;11382;48.086;11.632;2023-04-28T12:50:15;13.40;99.90
22430;DHT22;11382;48.086;11.632;2023-04-28T12:52:43;13.40;99.90
22430;DHT22;11382;48.086;11.632;2023-04-28T12:55:12;13.40;99.90
22430;DHT22;11382;48.086;11.632;2023-04-28T12:57:40;13.50;99.90
22430;DHT22;11382;48.086;11.632;2023-04-28T13:00:09;13.50;99.90
22430;DHT22;11382;48.086;11.632;2023-04-28T13:02:42;13.50;99.90
22430;DHT22;11382;48.086;11.632;2023-04-28T13:05:11;13.60;99.90
22430;DHT22;11382;48.086;11.632;2023-04-28T13:07:40;13.70;99.90
22430;DHT22;11382;48.086;11.632;2023-04-28T13:10:08;13.80;99.90
22430;DHT22;11382;48.086;11.632;2023-04-28T13:12:38;13.70;99.90
22430;DHT22;11382;48.086;11.632;2023-04-28T13:15:07;13.70;99.90
22430;DHT22;11382;48.086;11.632;2023-04-28T13:17:36;13.90;99.90
22430;DHT22;11382;48.086;11.632;2023-04-28T13:20:05;14.00;99.90
22430;DHT22;11382;48.086;11.632;2023-04-28T13:22:33;14.10;99.90
22430;DHT22;11382;48.086;11.632;2023-04-28T13:25:01;14.30;99.90
22430;DHT22;11382;48.086;11.632;2023-04-28T13:27:29;14.50;99.90
22430;DHT22;11382;48.086;11.632;2023-04-28T13:30:00;15.10;99.90
22430;DHT22;11382;48.086;11.632;2023-04-28T13:32:29;15.30;99.90
22430;DHT22;11382;48.086;11.632;2023-04-28T13:34:57;15.30;99.90
22430;DHT22;11382;48.086;11.632;2023-04-28T13:37:25;15.00;99.90
22430;DHT22;11382;48.086;11.632;2023-04-28T13:39:53;14.90;99.90
22430;DHT22;11382;48.086;11.632;2023-04-28T13:42:21;14.80;99.90
22430;DHT22;11382;48.086;11.632;2023-04-28T13:44:50;15.00;99.90
22430;DHT22;11382;48.086;11.632;2023-04-28T13:47:19;15.20;99.90
22430;DHT22;11382;48.086;11.632;2023-04-28T13:49:47;15.30;99.90
22430;DHT22;11382;48.086;11.632;2023-04-28T13:52:16;15.60;99.90
22430;DHT22;11382;48.086;11.632;2023-04-28T13:54:44;16.00;99.90
22430;DHT22;11382;48.086;11.632;2023-04-28T13:57:13;15.80;99.90
22430;DHT22;11382;48.086;11.632;2023-04-28T13:59:40;15.80;99.90
22430;DHT22;11382;48.086;11.632;2023-04-28T14:02:08;15.80;99.90
22430;DHT22;11382;48.086;11.632;2023-04-28T14:04:39;15.90;99.90
22430;DHT22;11382;48.086;11.632;2023-04-28T14:07:14;16.20;99.90
22430;DHT22;11382;48.086;11.632;2023-04-28T14:09:42;16.50;99.90
22430;DHT22;11382;48.086;11.632;2023-04-28T14:12:10;16.50;99.90
22430;DHT22;11382;48.086;11.632;2023-04-28T14:14:39;16.60;99.90
22430;DHT22;11382;48.086;11.632;2023-04-28T14:17:08;16.50;99.90
22430;DHT22;11382;48.086;11.632;2023-04-28T14:19:36;16.50;99.90
22430;DHT22;11382;48.086;11.632;2023-04-28T14:22:05;16.30;99.90
22430;DHT22;11382;48.086;11.632;2023-04-28T14:24:33;16.30;99.90
22430;DHT22;11382;48.086;11.632;2023-04-28T14:27:02;16.00;99.90
22430;DHT22;11382;48.086;11.632;2023-04-28T14:29:30;16.20;99.90
22430;DHT22;11382;48.086;11.632;2023-04-28T14:31:58;16.00;99.90
22430;DHT22;11382;48.086;11.632;2023-04-28T14:34:26;15.80;99.90
22430;DHT22;11382;48.086;11.632;2023-04-28T14:36:54;15.70;99.90
22430;DHT22;11382;48.086;11.632;2023-04-28T14:39:24;15.60;99.90
22430;DHT22;11382;48.086;11.632;2023-04-28T14:41:52;15.60;99.90
22430;DHT22;11382;48.086;11.632;2023-04-28T14:44:20;15.70;99.90
22430;DHT22;11382;48.086;11.632;2023-04-28T14:46:48;15.90;99.90
22430;DHT22;11382;48.086;11.632;2023-04-28T14:49:16;15.90;99.90
22430;DHT22;11382;48.086;11.632;2023-04-28T14:51:44;15.70;99.90
22430;DHT22;11382;48.086;11.632;2023-04-28T14:54:13;15.40;99.90
22430;DHT22;11382;48.086;11.632;2023-04-28T14:56:43;15.50;99.90
22430;DHT22;11382;48.086;11.632;2023-04-28T14:59:11;15.50;99.90
22430;DHT22;11382;48.086;11.632;2023-04-28T15:01:39;15.80;99.90
22430;DHT22;11382;48.086;11.632;2023-04-28T15:04:09;15.90;99.90
22430;DHT22;11382;48.086;11.632;2023-04-28T15:06:38;15.80;99.90
22430;DHT22;11382;48.086;11.632;2023-04-28T15:09:06;15.80;99.90
22430;DHT22;11382;48.086;11.632;2023-04-28T15:11:34;15.70;99.90
22430;DHT22;11382;48.086;11.632;2023-04-28T15:14:03;15.50;99.90
22430;DHT22;11382;48.086;11.632;2023-04-28T15:16:32;15.50;99.90
22430;DHT22;11382;48.086;11.632;2023-04-28T15:19:00;15.40;99.90
22430;DHT22;11382;48.086;11.632;2023-04-28T15:21:28;15.20;99.90
22430;DHT22;11382;48.086;11.632;2023-04-28T15:23:56;15.10;99.90
22430;DHT22;11382;48.086;11.632;2023-04-28T15:26:25;14.90;99.90
22430;DHT22;11382;48.086;11.632;2023-04-28T15:28:56;14.90;99.90
22430;DHT22;11382;48.086;11.632;2023-04-28T15:31:25;15.00;99.90
22430;DHT22;11382;48.086;11.632;2023-04-28T15:33:54;14.90;99.90
22430;DHT22;11382;48.086;11.632;2023-04-28T15:36:22;14.80;99.90
22430;DHT22;11382;48.086;11.632;2023-04-28T15:38:50;14.60;99.90
22430;DHT22;11382;48.086;11.632;2023-04-28T15:41:20;14.50;99.90